createdAt,value
2022-12-19T00:01:35.558Z,-3.94
2022-12-19T00:04:08.166Z,-3.93
2022-12-19T00:06:43.447Z,-3.94
2022-12-19T00:09:14.276Z,-3.88
2022-12-19T00:11:43.194Z,-3.90
2022-12-19T00:14:12.861Z,-3.89
2022-12-19T00:16:42.148Z,-3.93
2022-12-19T00:19:12.044Z,-3.91
2022-12-19T00:21:40.792Z,-3.96
2022-12-19T00:24:20.723Z,-3.96
2022-12-19T00:26:51.835Z,-3.92
2022-12-19T00:29:20.868Z,-3.98
2022-12-19T00:31:49.488Z,-3.81
2022-12-19T00:34:18.753Z,-3.83
2022-12-19T00:36:47.134Z,-3.82
2022-12-19T00:39:16.382Z,-3.71
2022-12-19T00:41:47.917Z,-3.60
2022-12-19T00:44:18.590Z,-3.58
2022-12-19T00:46:53.027Z,-3.43
2022-12-19T00:49:21.759Z,-3.48
2022-12-19T00:51:50.905Z,-3.32
2022-12-19T00:54:19.526Z,-3.31
2022-12-19T00:56:48.380Z,-3.25
2022-12-19T00:59:18.926Z,-3.26
2022-12-19T01:01:58.312Z,-3.22
2022-12-19T01:04:28.893Z,-3.25
2022-12-19T01:07:01.735Z,-3.18
2022-12-19T01:09:36.356Z,-3.21
2022-12-19T01:12:25.142Z,-3.15
2022-12-19T01:15:03.948Z,-3.14
2022-12-19T01:17:43.815Z,-3.23
2022-12-19T01:20:16.506Z,-3.27
2022-12-19T01:22:46.687Z,-3.25
2022-12-19T01:25:16.406Z,-3.24
2022-12-19T01:27:44.869Z,-3.27
2022-12-19T01:30:15.690Z,-3.28
2022-12-19T01:32:45.312Z,-3.34
2022-12-19T01:35:21.735Z,-3.27
2022-12-19T01:37:52.392Z,-3.24
2022-12-19T01:40:27.847Z,-3.16
2022-12-19T01:42:56.780Z,-3.13
2022-12-19T01:45:33.940Z,-3.12
2022-12-19T01:48:18.384Z,-3.11
2022-12-19T01:51:00.844Z,-3.15
2022-12-19T01:53:38.585Z,-3.04
2022-12-19T01:56:19.703Z,-3.17
2022-12-19T01:59:00.615Z,-3.11
2022-12-19T02:01:47.690Z,-3.02
2022-12-19T02:04:25.280Z,-3.13
2022-12-19T02:06:56.918Z,-3.15
2022-12-19T02:09:26.529Z,-3.15
2022-12-19T02:11:55.336Z,-3.13
2022-12-19T02:14:26.037Z,-3.08
2022-12-19T02:17:04.107Z,-3.01
2022-12-19T02:20:06.907Z,-2.94
2022-12-19T02:22:52.740Z,-3.27
2022-12-19T02:25:45.855Z,-3.08
2022-12-19T02:28:34.143Z,-3.12
2022-12-19T02:31:16.612Z,-3.09
2022-12-19T02:33:57.355Z,-3.13
2022-12-19T02:36:38.160Z,-3.07
2022-12-19T02:39:12.966Z,-3.10
2022-12-19T02:41:48.987Z,-2.96
2022-12-19T02:44:25.762Z,-2.92
2022-12-19T02:46:59.237Z,-2.91
2022-12-19T02:49:31.293Z,-2.89
2022-12-19T02:52:10.354Z,-2.87
2022-12-19T02:54:44.883Z,-2.82
2022-12-19T02:57:21.289Z,-2.77
2022-12-19T03:00:03.170Z,-2.71
2022-12-19T03:02:45.400Z,-2.77
2022-12-19T03:05:34.149Z,-2.82
2022-12-19T03:08:08.297Z,-2.95
2022-12-19T03:10:43.931Z,-3.09
2022-12-19T03:13:17.944Z,-2.86
2022-12-19T03:15:47.312Z,-2.85
2022-12-19T03:18:18.788Z,-2.84
2022-12-19T03:20:49.600Z,-2.87
2022-12-19T03:23:19.300Z,-2.82
2022-12-19T03:25:52.049Z,-2.77
2022-12-19T03:28:26.343Z,-2.77
2022-12-19T03:30:56.746Z,-2.78
2022-12-19T03:33:30.629Z,-2.78
2022-12-19T03:36:06.163Z,-2.78
2022-12-19T03:38:36.719Z,-2.75
2022-12-19T03:41:08.273Z,-3.38
2022-12-19T03:43:37.637Z,-2.74
2022-12-19T03:46:14.383Z,-2.71
2022-12-19T03:48:46.138Z,-2.68
2022-12-19T03:51:24.887Z,-2.75
2022-12-19T03:54:01.810Z,-2.72
2022-12-19T03:56:36.808Z,-2.73
2022-12-19T03:59:11.326Z,-2.70
2022-12-19T04:01:42.147Z,-2.70
2022-12-19T04:04:14.119Z,-2.81
2022-12-19T04:06:45.989Z,-2.82
2022-12-19T04:09:20.690Z,-2.94
2022-12-19T04:11:54.722Z,-2.94
2022-12-19T04:14:29.760Z,-2.97
2022-12-19T04:17:07.378Z,-2.93
2022-12-19T04:19:44.233Z,-2.84
2022-12-19T04:22:17.640Z,-2.86
2022-12-19T04:24:49.824Z,-2.95
2022-12-19T04:27:19.923Z,-2.78
2022-12-19T04:29:53.501Z,-2.83
2022-12-19T04:32:23.120Z,-2.82
2022-12-19T04:34:53.308Z,-2.86
2022-12-19T04:37:21.817Z,-2.99
2022-12-19T04:39:50.927Z,-3.00
2022-12-19T04:42:19.953Z,-2.94
2022-12-19T04:44:48.876Z,-2.97
2022-12-19T04:47:17.681Z,-2.92
2022-12-19T04:49:46.085Z,-2.91
2022-12-19T04:52:16.785Z,-3.00
2022-12-19T04:54:45.217Z,-2.94
2022-12-19T04:57:14.153Z,-2.98
2022-12-19T04:59:42.894Z,-3.08
2022-12-19T05:02:11.447Z,-2.98
2022-12-19T05:04:40.965Z,-2.95
2022-12-19T05:07:09.673Z,-2.86
2022-12-19T05:09:39.947Z,-2.85
2022-12-19T05:12:10.753Z,-2.92
2022-12-19T05:14:39.159Z,-2.85
2022-12-19T05:17:08.248Z,-3.03
2022-12-19T05:19:36.914Z,-3.09
2022-12-19T05:22:05.334Z,-3.09
2022-12-19T05:24:34.801Z,-3.08
2022-12-19T05:27:05.232Z,-3.05
2022-12-19T05:29:34.925Z,-3.05
2022-12-19T05:32:03.358Z,-3.40
2022-12-19T05:34:32.743Z,-3.25
2022-12-19T05:37:03.079Z,-3.23
2022-12-19T05:39:32.455Z,-3.26
2022-12-19T05:42:01.392Z,-3.30
2022-12-19T05:44:31.163Z,-3.19
2022-12-19T05:47:00.391Z,-3.21
2022-12-19T05:49:29.286Z,-3.21
2022-12-19T05:51:57.639Z,-3.21
2022-12-19T05:54:27.975Z,-3.25
2022-12-19T05:56:56.425Z,-3.19
2022-12-19T05:59:25.480Z,-3.12
2022-12-19T06:01:56.008Z,-3.07
2022-12-19T06:04:25.029Z,-2.98
2022-12-19T06:06:53.880Z,-2.96
2022-12-19T06:09:22.436Z,-2.99
2022-12-19T06:11:53.152Z,-3.04
2022-12-19T06:14:21.687Z,-2.96
2022-12-19T06:16:50.123Z,-3.14
2022-12-19T06:19:20.444Z,-3.17
2022-12-19T06:21:49.669Z,-3.05
2022-12-19T06:24:19.079Z,-2.96
2022-12-19T06:26:47.525Z,-2.96
2022-12-19T06:29:16.576Z,-2.92
2022-12-19T06:31:45.801Z,-3.18
2022-12-19T06:34:32.861Z,-3.03
2022-12-19T06:37:08.110Z,-3.01
2022-12-19T06:39:36.980Z,-3.10
2022-12-19T06:42:24.354Z,-2.99
2022-12-19T06:44:56.014Z,-2.94
2022-12-19T06:47:26.142Z,-2.97
2022-12-19T06:49:54.741Z,-2.93
2022-12-19T06:52:26.221Z,-2.86
2022-12-19T06:54:55.269Z,-2.87
2022-12-19T06:57:24.171Z,-2.88
2022-12-19T06:59:52.837Z,-2.97
2022-12-19T07:02:27.342Z,-2.89
2022-12-19T07:05:01.655Z,-2.88
2022-12-19T07:07:31.771Z,-2.86
2022-12-19T07:10:00.873Z,-2.96
2022-12-19T07:12:29.340Z,-2.88
2022-12-19T07:14:58.179Z,-2.85
2022-12-19T07:17:27.557Z,-2.87
2022-12-19T07:19:58.698Z,-2.81
2022-12-19T07:22:34.583Z,-2.74
2022-12-19T07:25:04.598Z,-2.62
2022-12-19T07:27:36.172Z,-2.66
2022-12-19T07:30:07.864Z,-2.59
2022-12-19T07:32:37.450Z,-2.52
2022-12-19T07:35:06.847Z,-2.51
2022-12-19T07:37:36.644Z,-2.39
2022-12-19T07:40:06.522Z,-2.34
2022-12-19T07:42:35.215Z,-2.31
2022-12-19T07:45:04.305Z,-2.20
2022-12-19T07:47:32.804Z,-2.15
2022-12-19T07:50:01.965Z,-2.16
2022-12-19T07:52:30.845Z,-2.18
2022-12-19T07:55:00.668Z,-2.17
2022-12-19T07:57:29.165Z,-2.17
2022-12-19T07:59:58.038Z,-2.17
2022-12-19T08:02:27.845Z,-2.17
2022-12-19T08:04:56.412Z,-2.16
2022-12-19T08:07:25.343Z,-2.24
2022-12-19T08:09:54.184Z,-2.20
2022-12-19T08:12:24.275Z,-2.08
2022-12-19T08:14:57.100Z,-2.04
2022-12-19T08:17:26.680Z,-2.12
2022-12-19T08:19:55.137Z,-2.16
2022-12-19T08:22:24.855Z,-2.13
2022-12-19T08:24:53.832Z,-2.09
2022-12-19T08:27:22.269Z,-2.04
2022-12-19T08:29:53.405Z,-2.13
2022-12-19T08:32:22.310Z,-1.95
2022-12-19T08:34:51.663Z,-2.02
2022-12-19T08:37:20.979Z,-1.79
2022-12-19T08:39:49.402Z,-1.75
2022-12-19T08:42:18.734Z,-1.76
2022-12-19T08:44:47.238Z,-1.77
2022-12-19T08:47:17.636Z,-1.76
2022-12-19T08:49:46.998Z,-1.73
2022-12-19T08:52:15.427Z,-1.69
2022-12-19T08:54:45.804Z,-1.65
2022-12-19T08:57:14.266Z,-1.53
2022-12-19T08:59:42.949Z,-1.48
2022-12-19T09:02:12.424Z,-1.48
2022-12-19T09:06:00.737Z,-1.45
2022-12-19T09:07:32.271Z,-1.51
2022-12-19T09:10:08.867Z,-1.57
2022-12-19T09:12:37.933Z,-1.29
2022-12-19T09:15:07.181Z,-1.21
2022-12-19T09:17:36.646Z,-1.08
2022-12-19T09:20:08.157Z,-1.01
2022-12-19T09:22:36.664Z,-1.02
2022-12-19T09:25:06.271Z,-0.99
2022-12-19T09:28:09.339Z,-0.92
2022-12-19T09:30:25.269Z,-0.88
2022-12-19T09:32:54.053Z,-0.81
2022-12-19T09:35:29.909Z,-0.80
2022-12-19T09:38:00.495Z,-0.79
2022-12-19T09:40:36.677Z,-0.75
2022-12-19T09:43:09.856Z,-0.72
2022-12-19T09:45:50.713Z,-0.57
2022-12-19T09:48:24.542Z,-0.48
2022-12-19T09:51:07.951Z,-0.41
2022-12-19T09:53:53.817Z,-0.34
2022-12-19T09:56:27.560Z,-0.34
2022-12-19T09:59:02.081Z,-0.22
2022-12-19T10:01:36.831Z,-0.14
2022-12-19T10:04:12.107Z,-0.14
2022-12-19T10:07:22.226Z,-0.15
2022-12-19T10:11:26.463Z,-0.03
2022-12-19T10:12:52.362Z,0.07
2022-12-19T10:15:30.403Z,0.12
2022-12-19T10:18:15.953Z,0.14
2022-12-19T10:20:51.641Z,0.08
2022-12-19T10:23:46.847Z,0.02
2022-12-19T10:26:20.591Z,0.03
2022-12-19T10:29:13.577Z,0.02
2022-12-19T10:31:53.697Z,0.14
2022-12-19T10:34:25.102Z,0.15
2022-12-19T10:37:24.501Z,0.30
2022-12-19T10:40:27.550Z,0.40
2022-12-19T10:43:11.000Z,0.54
2022-12-19T10:45:47.062Z,0.64
2022-12-19T10:48:18.693Z,0.65
2022-12-19T10:50:50.465Z,0.65
2022-12-19T10:53:28.118Z,0.71
2022-12-19T10:56:02.641Z,0.73
2022-12-19T10:58:34.927Z,0.66
2022-12-19T11:01:07.547Z,0.67
2022-12-19T11:03:36.850Z,0.49
2022-12-19T11:06:07.777Z,0.53
2022-12-19T11:08:37.474Z,0.46
2022-12-19T11:14:50.076Z,0.57
2022-12-19T11:19:06.831Z,0.66
2022-12-19T11:23:42.513Z,0.61
2022-12-19T11:29:30.141Z,0.55
2022-12-19T11:29:31.325Z,0.60
2022-12-19T11:30:26.151Z,0.77
2022-12-19T11:30:47.446Z,0.65
2022-12-19T11:32:40.542Z,0.86
2022-12-19T11:34:51.452Z,0.98
2022-12-19T11:37:23.225Z,1.05
2022-12-19T11:39:59.226Z,1.10
2022-12-19T11:42:33.763Z,1.28
2022-12-19T11:45:13.089Z,1.36
2022-12-19T11:47:46.791Z,1.47
2022-12-19T11:50:19.835Z,1.53
2022-12-19T11:53:09.405Z,1.73
2022-12-19T11:55:46.965Z,1.47
2022-12-19T11:58:16.225Z,1.68
2022-12-19T12:01:03.109Z,1.86
2022-12-19T12:03:54.734Z,1.89
2022-12-19T12:06:35.045Z,1.96
2022-12-19T12:12:06.179Z,2.05
2022-12-19T12:20:31.262Z,2.02
2022-12-19T12:28:01.732Z,2.08
2022-12-19T12:31:04.529Z,2.12
2022-12-19T12:31:28.474Z,2.15
2022-12-19T12:31:49.683Z,2.13
2022-12-19T12:31:52.578Z,2.00
2022-12-19T12:31:57.409Z,2.03
2022-12-19T12:35:32.947Z,2.04
2022-12-19T12:37:51.458Z,1.96
2022-12-19T12:39:25.363Z,1.85
2022-12-19T12:42:09.498Z,1.56
2022-12-19T12:44:45.194Z,1.65
2022-12-19T12:47:20.446Z,1.58
2022-12-19T12:49:53.773Z,1.67
2022-12-19T12:52:30.941Z,1.76
2022-12-19T12:54:59.958Z,1.74
2022-12-19T12:57:36.921Z,1.76
2022-12-19T13:00:17.896Z,1.80
2022-12-19T13:02:51.458Z,1.83
2022-12-19T13:05:31.147Z,1.97
2022-12-19T13:08:01.031Z,2.03
2022-12-19T13:10:32.348Z,2.02
2022-12-19T13:13:03.206Z,2.03
2022-12-19T13:15:49.681Z,2.06
2022-12-19T13:18:37.788Z,2.01
2022-12-19T13:21:10.894Z,1.94
2022-12-19T13:23:49.374Z,1.98
2022-12-19T13:26:23.903Z,2.01
2022-12-19T13:28:52.901Z,1.98
2022-12-19T13:31:23.601Z,1.85
2022-12-19T13:34:19.330Z,1.96
2022-12-19T13:39:50.241Z,1.93
2022-12-19T13:40:10.955Z,1.79
2022-12-19T13:43:11.455Z,1.59
2022-12-19T13:45:42.621Z,1.69
2022-12-19T13:48:17.799Z,1.71
2022-12-19T13:50:49.468Z,1.73
2022-12-19T13:53:19.746Z,1.67
2022-12-19T13:55:50.169Z,1.55
2022-12-19T13:58:28.848Z,1.60
2022-12-19T14:01:02.409Z,1.66
2022-12-19T14:03:37.235Z,1.72
2022-12-19T14:06:16.348Z,1.74
2022-12-19T14:09:41.572Z,1.76
2022-12-19T14:12:17.234Z,1.70
2022-12-19T14:14:49.060Z,1.77
2022-12-19T14:17:38.057Z,1.77
2022-12-19T14:22:06.789Z,1.76
2022-12-19T14:23:08.086Z,1.72
2022-12-19T14:28:21.795Z,1.69
2022-12-19T14:28:38.213Z,1.69
2022-12-19T14:31:12.508Z,1.71
2022-12-19T14:34:04.743Z,1.73
2022-12-19T14:36:36.019Z,1.69
2022-12-19T14:39:22.891Z,1.67
2022-12-19T14:42:18.946Z,1.65
2022-12-19T14:54:01.973Z,1.55
2022-12-19T14:54:07.888Z,1.60
2022-12-19T14:54:16.485Z,1.45
2022-12-19T14:54:55.168Z,1.52
2022-12-19T14:59:05.276Z,1.48
2022-12-19T15:01:36.751Z,1.47
2022-12-19T15:04:51.448Z,1.43
2022-12-19T15:07:08.177Z,1.38
2022-12-19T15:11:04.632Z,1.32
2022-12-19T15:14:52.914Z,1.18
2022-12-19T15:16:00.522Z,1.22
2022-12-19T15:18:40.986Z,1.23
2022-12-19T15:21:12.553Z,1.23
2022-12-19T15:23:42.271Z,1.22
2022-12-19T15:26:15.131Z,1.16
2022-12-19T15:28:47.836Z,1.13
2022-12-19T15:31:29.711Z,1.15
2022-12-19T15:34:34.268Z,1.12
2022-12-19T15:36:48.699Z,1.12
2022-12-19T15:39:17.793Z,1.08
2022-12-19T15:41:48.500Z,1.08
2022-12-19T15:44:20.072Z,1.07
2022-12-19T15:46:49.863Z,1.07
2022-12-19T15:49:22.072Z,1.07
2022-12-19T15:51:51.580Z,1.05
2022-12-19T15:57:20.936Z,0.98
2022-12-19T15:59:49.630Z,0.98
2022-12-19T16:02:21.725Z,0.85
2022-12-19T16:04:58.325Z,0.89
2022-12-19T16:07:30.799Z,0.87
2022-12-19T16:09:59.764Z,0.84
2022-12-19T16:12:33.954Z,0.83
2022-12-19T16:15:04.860Z,0.78
2022-12-19T16:17:34.278Z,0.78
2022-12-19T16:20:05.475Z,0.83
2022-12-19T16:22:34.344Z,0.83
2022-12-19T16:25:03.773Z,0.85
2022-12-19T16:27:32.788Z,0.81
2022-12-19T16:30:18.805Z,0.81
2022-12-19T16:32:48.135Z,0.76
2022-12-19T16:35:40.268Z,0.81
2022-12-19T16:38:10.040Z,0.75
2022-12-19T16:40:39.196Z,0.77
2022-12-19T16:43:15.423Z,0.75
2022-12-19T16:45:45.436Z,0.77
2022-12-19T16:48:22.580Z,0.75
2022-12-19T16:50:52.492Z,0.74
2022-12-19T16:53:21.887Z,0.74
2022-12-19T16:55:51.449Z,0.74
2022-12-19T16:58:22.501Z,0.76
2022-12-19T17:00:53.628Z,0.73
2022-12-19T17:03:30.239Z,0.72
2022-12-19T17:06:00.111Z,0.67
2022-12-19T17:08:29.203Z,0.61
2022-12-19T17:10:57.800Z,0.50
2022-12-19T17:13:26.716Z,0.63
2022-12-19T17:15:57.359Z,0.68
2022-12-19T17:18:30.318Z,0.74
2022-12-19T17:21:01.667Z,0.74
2022-12-19T17:23:32.476Z,0.70
2022-12-19T17:26:02.214Z,0.67
2022-12-19T17:28:30.927Z,0.62
2022-12-19T17:31:04.254Z,0.65
2022-12-19T17:33:35.597Z,0.69
2022-12-19T17:36:07.752Z,0.70
2022-12-19T17:38:36.487Z,0.67
2022-12-19T17:41:05.340Z,0.58
2022-12-19T17:43:34.261Z,0.46
2022-12-19T17:46:03.520Z,0.41
2022-12-19T17:48:33.773Z,0.37
2022-12-19T17:51:02.856Z,0.39
2022-12-19T17:53:33.248Z,0.39
2022-12-19T17:56:02.142Z,0.38
2022-12-19T17:58:30.828Z,0.35
2022-12-19T18:01:01.343Z,0.37
2022-12-19T18:03:29.958Z,0.26
2022-12-19T18:05:59.497Z,0.31
2022-12-19T18:08:31.742Z,0.35
2022-12-19T18:11:03.062Z,0.35
2022-12-19T18:13:33.005Z,0.31
2022-12-19T18:16:03.223Z,0.27
2022-12-19T18:18:36.168Z,0.30
2022-12-19T18:21:06.400Z,0.10
2022-12-19T18:23:35.358Z,0.22
2022-12-19T18:26:05.207Z,0.20
2022-12-19T18:28:34.122Z,0.17
2022-12-19T18:31:04.915Z,-0.04
2022-12-19T18:33:38.949Z,0.10
2022-12-19T18:36:08.893Z,-0.02
2022-12-19T18:38:37.389Z,0.04
2022-12-19T18:41:10.849Z,0.11
2022-12-19T18:43:40.484Z,0.09
2022-12-19T18:46:14.266Z,-0.03
2022-12-19T18:48:44.354Z,-0.03
2022-12-19T18:51:16.946Z,0.09
2022-12-19T18:53:47.695Z,0.06
2022-12-19T18:56:19.381Z,0.25
2022-12-19T18:58:48.482Z,0.34
2022-12-19T19:01:20.476Z,0.46
2022-12-19T19:03:54.284Z,0.56
2022-12-19T19:06:25.839Z,0.65
2022-12-19T19:08:56.865Z,0.70
2022-12-19T19:11:53.848Z,0.81
2022-12-19T19:14:22.366Z,0.81
2022-12-19T19:16:52.331Z,0.80
2022-12-19T19:19:21.271Z,0.70
2022-12-19T19:21:50.138Z,0.72
2022-12-19T19:24:21.768Z,0.65
2022-12-19T19:26:50.671Z,0.57
2022-12-19T19:29:20.534Z,0.58
2022-12-19T19:31:51.551Z,0.71
2022-12-19T19:34:24.403Z,0.78
2022-12-19T19:36:56.354Z,0.79
2022-12-19T19:39:25.344Z,0.85
2022-12-19T19:41:53.810Z,0.81
2022-12-19T19:44:23.869Z,0.71
2022-12-19T19:46:52.381Z,0.65
2022-12-19T19:49:21.959Z,0.67
2022-12-19T19:51:50.405Z,0.71
2022-12-19T19:54:19.761Z,0.71
2022-12-19T19:56:48.892Z,0.75
2022-12-19T19:59:17.404Z,0.72
2022-12-19T20:01:47.368Z,0.64
2022-12-19T20:04:16.283Z,0.54
2022-12-19T20:06:44.760Z,0.59
2022-12-19T20:09:13.196Z,0.57
2022-12-19T20:11:41.616Z,0.44
2022-12-19T20:14:10.692Z,0.44
2022-12-19T20:16:39.148Z,0.31
2022-12-19T20:19:09.374Z,0.12
2022-12-19T20:21:37.852Z,-0.03
2022-12-19T20:24:07.547Z,0.14
2022-12-19T20:26:36.223Z,0.04
2022-12-19T20:29:07.064Z,0.07
2022-12-19T20:31:35.619Z,0.14
2022-12-19T20:34:04.740Z,0.15
2022-12-19T20:36:34.835Z,0.20
2022-12-19T20:39:03.472Z,0.07
2022-12-19T20:41:32.232Z,0.15
2022-12-19T20:44:01.155Z,0.11
2022-12-19T20:46:29.662Z,-0.03
2022-12-19T20:48:59.172Z,0.03
2022-12-19T20:51:27.591Z,-0.04
2022-12-19T20:53:58.378Z,-0.05
2022-12-19T20:56:28.495Z,0.03
2022-12-19T20:58:57.586Z,0.10
2022-12-19T21:01:26.496Z,0.14
2022-12-19T21:03:55.261Z,0.13
2022-12-19T21:06:26.966Z,-0.03
2022-12-19T21:08:58.183Z,-0.10
2022-12-19T21:11:27.203Z,-0.18
2022-12-19T21:13:56.109Z,-0.12
2022-12-19T21:16:24.972Z,-0.09
2022-12-19T21:18:53.957Z,-0.04
2022-12-19T21:21:24.674Z,0.01
2022-12-19T21:23:55.642Z,-0.07
2022-12-19T21:26:26.888Z,-0.10
2022-12-19T21:28:58.216Z,-0.18
2022-12-19T21:31:28.678Z,-0.23
2022-12-19T21:33:59.764Z,-0.24
2022-12-19T21:36:29.174Z,-0.25
2022-12-19T21:39:00.288Z,-0.19
2022-12-19T21:41:30.855Z,-0.09
2022-12-19T21:44:00.692Z,-0.03
2022-12-19T21:46:32.965Z,0.03
2022-12-19T21:49:03.342Z,0.03
2022-12-19T21:51:33.162Z,-0.01
2022-12-19T21:54:03.855Z,-0.07
2022-12-19T21:56:35.315Z,-0.13
2022-12-19T21:59:05.671Z,-0.18
2022-12-19T22:01:35.146Z,-0.18
2022-12-19T22:04:06.397Z,-0.15
2022-12-19T22:06:37.149Z,-0.17
2022-12-19T22:09:08.355Z,-0.12
2022-12-19T22:11:38.687Z,-0.20
2022-12-19T22:14:07.828Z,-0.17
2022-12-19T22:16:37.000Z,-0.24
2022-12-19T22:19:07.395Z,-0.29
2022-12-19T22:21:36.177Z,-0.31
2022-12-19T22:24:05.005Z,-0.27
2022-12-19T22:26:35.993Z,-0.30
2022-12-19T22:29:08.489Z,-0.33
2022-12-19T22:31:38.870Z,-0.27
2022-12-19T22:34:10.327Z,-0.20
2022-12-19T22:36:40.876Z,-0.22
2022-12-19T22:39:10.993Z,-0.18
2022-12-19T22:41:41.449Z,-0.19
2022-12-19T22:44:16.786Z,-0.13
2022-12-19T22:46:45.797Z,-0.06
2022-12-19T22:49:14.870Z,-0.02
2022-12-19T22:51:43.351Z,0.01
2022-12-19T22:54:12.786Z,0.07
2022-12-19T22:56:42.292Z,0.07
2022-12-19T22:59:13.747Z,0.00
2022-12-19T23:01:44.224Z,-0.04
2022-12-19T23:04:15.967Z,-0.09
2022-12-19T23:06:45.230Z,-0.13
2022-12-19T23:09:16.575Z,-0.21
2022-12-19T23:11:47.052Z,-0.09
2022-12-19T23:14:19.115Z,-0.04
2022-12-19T23:16:48.434Z,-0.04
2022-12-19T23:19:17.391Z,-0.11
2022-12-19T23:21:46.903Z,0.01
2022-12-19T23:24:16.444Z,0.03
2022-12-19T23:26:45.574Z,0.02
2022-12-19T23:29:15.797Z,0.03
2022-12-19T23:31:47.610Z,0.00
2022-12-19T23:34:16.874Z,-0.04
2022-12-19T23:37:10.083Z,-0.06
2022-12-19T23:39:35.095Z,-0.12
2022-12-19T23:42:03.788Z,0.03
2022-12-19T23:44:32.423Z,0.11
2022-12-19T23:47:04.151Z,0.07
2022-12-19T23:49:33.991Z,0.10
2022-12-19T23:52:03.715Z,0.02
2022-12-19T23:54:32.588Z,0.04
2022-12-19T23:57:01.506Z,-0.06
2022-12-19T23:59:30.271Z,-0.11
